Apostle Islands National Lak, Wisconsin
Current Conditions -  °F | °C
As of 3:53 AM on Saturday 22 Nov 2014 (Local Time) from KASX Reporting Station
Broken Clouds Broken Clouds  
Wind Chill: 24°   Ceiling: 1800
Heat Index: 33°   Visibility: 8mi
Dew Point: 28°   Wind: 13mph
Humidity: 82%   Direction: 220°SW
Pressure: 29.75"   Gusts: 21mph
Location:  46.8614°N, 90.9101°W
Report Text: KASX 220953Z AUTO 22011G18KT 8SM BKN018 01/M02 A2975 RMK AO2 SLP086 T00061022
Loading
Personal Weather Stations






























Interactive Weather Map New forecast layout! Learn more

10-Day Weather Forecast

Advertisements
Track Severe Weather on mobile